createdAt,value
2017-05-30T00:00:54.143Z,1010.48
2017-05-30T00:02:03.039Z,1010.44
2017-05-30T00:03:12.589Z,1010.45
2017-05-30T00:04:21.485Z,1010.46
2017-05-30T00:05:30.710Z,1010.51
2017-05-30T00:06:40.078Z,1010.59
2017-05-30T00:07:48.978Z,1010.57
2017-05-30T00:08:58.907Z,1010.56
2017-05-30T00:10:07.809Z,1010.57
2017-05-30T00:11:16.703Z,1010.54
2017-05-30T00:12:25.699Z,1010.54
2017-05-30T00:13:34.929Z,1010.52
2017-05-30T00:14:44.159Z,1010.49
2017-05-30T00:15:54.038Z,1010.51
2017-05-30T00:17:03.257Z,1010.51
2017-05-30T00:18:12.776Z,1010.5
2017-05-30T00:19:22.329Z,1010.49
2017-05-30T00:20:31.547Z,1010.51
2017-05-30T00:21:40.768Z,1010.52
2017-05-30T00:22:49.667Z,1010.49
2017-05-30T00:23:59.257Z,1010.49
2017-05-30T00:25:08.153Z,1010.54
2017-05-30T00:26:17.052Z,1010.53
2017-05-30T00:27:26.916Z,1010.51
2017-05-30T00:28:36.461Z,1010.48
2017-05-30T00:29:46.157Z,1010.47
2017-05-30T00:30:55.379Z,1010.44
2017-05-30T00:32:04.596Z,1010.42
2017-05-30T00:33:13.822Z,1010.39
2017-05-30T00:34:23.052Z,1010.42
2017-05-30T00:35:32.423Z,1010.38
2017-05-30T00:36:41.708Z,1010.35
2017-05-30T00:37:50.600Z,1010.31
2017-05-30T00:38:59.820Z,1010.31
2017-05-30T00:40:08.735Z,1010.28
2017-05-30T00:41:18.002Z,1010.23
2017-05-30T00:42:26.898Z,1010.22
2017-05-30T00:43:36.133Z,1010.2
2017-05-30T00:44:45.359Z,1010.2
2017-05-30T00:45:54.582Z,1010.2
2017-05-30T00:47:03.952Z,1010.16
2017-05-30T00:48:13.171Z,1010.16
2017-05-30T00:49:22.073Z,1010.19
2017-05-30T00:50:31.292Z,1010.15
2017-05-30T00:51:40.184Z,1010.18
2017-05-30T00:52:50.009Z,1010.19
2017-05-30T00:53:59.227Z,1010.16
2017-05-30T00:55:08.445Z,1010.15
2017-05-30T00:56:17.338Z,1010.15
2017-05-30T00:57:26.884Z,1010.14
2017-05-30T00:58:36.730Z,1010.12
2017-05-30T00:59:45.625Z,1010.13
2017-05-30T01:00:54.536Z,1010.15
2017-05-30T01:02:03.433Z,1010.14
2017-05-30T01:03:12.327Z,1010.21
2017-05-30T01:04:21.560Z,1010.18
2017-05-30T01:05:31.107Z,1010.19
2017-05-30T01:06:40.322Z,1010.19
2017-05-30T01:07:50.203Z,1010.2
2017-05-30T01:08:59.108Z,1010.17
2017-05-30T01:10:08.806Z,1010.22
2017-05-30T01:11:17.701Z,1010.14
2017-05-30T01:12:26.921Z,1010.13
2017-05-30T01:13:36.138Z,1010.14
2017-05-30T01:14:45.365Z,1010.07
2017-05-30T01:15:54.892Z,1010.1
2017-05-30T01:17:04.438Z,1010.14
2017-05-30T01:18:13.337Z,1010.11
2017-05-30T01:19:22.244Z,1010.09
2017-05-30T01:20:31.470Z,1010.14
2017-05-30T01:21:40.892Z,1010.17
2017-05-30T01:22:49.793Z,1010.18
2017-05-30T01:23:59.030Z,1010.17
2017-05-30T01:25:08.896Z,1010.22
2017-05-30T01:26:17.788Z,1010.22
2017-05-30T01:27:26.830Z,1010.3
2017-05-30T01:28:36.046Z,1010.31
2017-05-30T01:29:45.920Z,1010.36
2017-05-30T01:30:55.140Z,1010.33
2017-05-30T01:32:04.359Z,1010.34
2017-05-30T01:33:14.004Z,1010.31
2017-05-30T01:34:23.225Z,1010.33
2017-05-30T01:35:32.445Z,1010.34
2017-05-30T01:36:41.989Z,1010.31
2017-05-30T01:37:51.537Z,1010.34
2017-05-30T01:39:00.961Z,1010.32
2017-05-30T01:40:09.851Z,1010.26
2017-05-30T01:41:18.747Z,1010.25
2017-05-30T01:42:27.983Z,1010.26
2017-05-30T01:43:37.208Z,1010.26
2017-05-30T01:44:46.805Z,1010.23
2017-05-30T01:45:56.041Z,1010.31
2017-05-30T01:47:05.258Z,1010.34
2017-05-30T01:48:14.155Z,1010.37
2017-05-30T01:49:23.374Z,1010.42
2017-05-30T01:50:32.423Z,1010.44
2017-05-30T01:51:41.323Z,1010.45
2017-05-30T01:52:50.538Z,1010.44
2017-05-30T01:53:59.435Z,1010.46
2017-05-30T01:55:08.340Z,1010.49
2017-05-30T01:56:17.384Z,1010.5
2017-05-30T01:57:26.284Z,1010.52
2017-05-30T01:58:35.509Z,1010.5
2017-05-30T01:59:44.736Z,1010.52
2017-05-30T02:00:53.634Z,1010.52
2017-05-30T02:02:02.933Z,1010.51
2017-05-30T02:03:11.831Z,1010.57
2017-05-30T02:04:21.439Z,1010.62
2017-05-30T02:05:30.659Z,1010.65
2017-05-30T02:06:40.201Z,1010.75
2017-05-30T02:07:49.897Z,1010.84
2017-05-30T02:08:59.769Z,1010.96
2017-05-30T02:10:08.658Z,1011.12
2017-05-30T02:11:17.881Z,1011.26
2017-05-30T02:12:27.426Z,1011.61
2017-05-30T02:13:36.621Z,1011.96
2017-05-30T02:14:45.842Z,1012.03
2017-05-30T02:15:55.385Z,1011.98
2017-05-30T02:17:04.282Z,1011.92
2017-05-30T02:18:13.180Z,1011.93
2017-05-30T02:19:22.399Z,1011.86
2017-05-30T02:20:31.298Z,1011.75
2017-05-30T02:21:40.192Z,1011.77
2017-05-30T02:22:50.062Z,1011.79
2017-05-30T02:23:59.285Z,1011.65
2017-05-30T02:25:08.611Z,1011.51
2017-05-30T02:26:17.829Z,1011.36
2017-05-30T02:27:27.375Z,1011.19
2017-05-30T02:28:36.658Z,1011.08
2017-05-30T02:29:45.881Z,1010.94
2017-05-30T02:30:54.931Z,1010.95
2017-05-30T02:32:04.163Z,1010.97
2017-05-30T02:33:13.059Z,1010.89
2017-05-30T02:34:22.277Z,1010.74
2017-05-30T02:35:31.222Z,1010.64
2017-05-30T02:36:40.543Z,1010.58
2017-05-30T02:37:49.439Z,1010.42
2017-05-30T02:38:58.332Z,1010.34
2017-05-30T02:40:07.554Z,1010.33
2017-05-30T02:41:16.773Z,1010.22
2017-05-30T02:42:26.291Z,1010.15
2017-05-30T02:43:35.191Z,1010.02
2017-05-30T02:44:44.764Z,1009.95
2017-05-30T02:45:53.983Z,1009.8
2017-05-30T02:47:02.878Z,1009.75
2017-05-30T02:48:11.923Z,1009.69
2017-05-30T02:49:21.471Z,1009.78
2017-05-30T02:50:30.695Z,1009.9
2017-05-30T02:51:39.917Z,1010.02
2017-05-30T02:52:48.815Z,1010.08
2017-05-30T02:53:58.143Z,1010.19
2017-05-30T02:55:07.042Z,1010.31
2017-05-30T02:56:16.260Z,1010.22
2017-05-30T02:57:25.489Z,1010.27
2017-05-30T02:58:34.708Z,1010.29
2017-05-30T02:59:44.235Z,1010.3
2017-05-30T03:00:53.784Z,1010.39
2017-05-30T03:02:03.006Z,1010.49
2017-05-30T03:03:11.901Z,1010.4
2017-05-30T03:04:21.136Z,1010.34
2017-05-30T03:05:30.341Z,1010.33
2017-05-30T03:06:39.562Z,1010.34
2017-05-30T03:07:48.453Z,1010.33
2017-05-30T03:08:58.000Z,1010.32
2017-05-30T03:10:06.890Z,1010.36
2017-05-30T03:11:16.684Z,1010.38
2017-05-30T03:12:25.918Z,1010.22
2017-05-30T03:13:34.818Z,1010.13
2017-05-30T03:14:44.368Z,1010.08
2017-05-30T03:15:53.590Z,1010.08
2017-05-30T03:17:02.538Z,1010.06
2017-05-30T03:18:11.758Z,1010.11
2017-05-30T03:19:20.973Z,1010.21
2017-05-30T03:20:30.191Z,1010.24
2017-05-30T03:21:39.432Z,1010.23
2017-05-30T03:22:48.798Z,1010.24
2017-05-30T03:23:57.689Z,1010.28
2017-05-30T03:25:06.596Z,1010.3
2017-05-30T03:26:15.496Z,1010.28
2017-05-30T03:27:24.394Z,1010.32
2017-05-30T03:28:33.534Z,1010.35
2017-05-30T03:29:43.078Z,1010.31
2017-05-30T03:30:52.369Z,1010.37
2017-05-30T03:32:01.588Z,1010.38
2017-05-30T03:33:10.809Z,1010.4
2017-05-30T03:34:19.753Z,1010.33
2017-05-30T03:35:28.975Z,1010.4
2017-05-30T03:36:37.866Z,1010.41
2017-05-30T03:37:46.761Z,1010.39
2017-05-30T03:38:56.052Z,1010.44
2017-05-30T03:40:05.424Z,1010.4
2017-05-30T03:41:14.972Z,1010.46
2017-05-30T03:42:23.879Z,1010.47
2017-05-30T03:43:33.424Z,1010.46
2017-05-30T03:44:42.646Z,1010.51
2017-05-30T03:45:52.172Z,1010.48
2017-05-30T03:47:01.713Z,1010.46
2017-05-30T03:48:11.581Z,1010.51
2017-05-30T03:49:20.478Z,1010.5
2017-05-30T03:50:29.714Z,1010.41
2017-05-30T03:51:39.032Z,1010.41
2017-05-30T03:52:48.576Z,1010.39
2017-05-30T03:53:57.797Z,1010.36
2017-05-30T03:55:07.024Z,1010.3
2017-05-30T03:56:16.245Z,1010.32
2017-05-30T03:57:26.165Z,1010.29
2017-05-30T03:58:35.060Z,1010.23
2017-05-30T03:59:44.925Z,1010.25
2017-05-30T04:00:53.830Z,1010.24
2017-05-30T04:02:03.049Z,1010.21
2017-05-30T04:03:12.415Z,1010.25
2017-05-30T04:04:21.968Z,1010.2
2017-05-30T04:05:31.517Z,1010.22
2017-05-30T04:06:40.737Z,1010.25
2017-05-30T04:07:49.958Z,1010.28
2017-05-30T04:08:59.024Z,1010.26
2017-05-30T04:10:08.569Z,1010.24
2017-05-30T04:11:17.469Z,1010.25
2017-05-30T04:12:26.367Z,1010.24
2017-05-30T04:13:35.922Z,1010.25
2017-05-30T04:14:45.546Z,1010.24
2017-05-30T04:15:55.095Z,1010.24
2017-05-30T04:17:03.994Z,1010.19
2017-05-30T04:18:12.888Z,1010.2
2017-05-30T04:19:22.434Z,1010.26
2017-05-30T04:20:31.408Z,1010.24
2017-05-30T04:21:40.315Z,1010.26
2017-05-30T04:22:49.855Z,1010.24
2017-05-30T04:23:59.398Z,1010.2
2017-05-30T04:25:08.622Z,1010.16
2017-05-30T04:26:17.614Z,1010.13
2017-05-30T04:27:26.508Z,1010.17
2017-05-30T04:28:36.384Z,1010.16
2017-05-30T04:29:45.935Z,1010.2
2017-05-30T04:30:54.833Z,1010.22
2017-05-30T04:32:03.776Z,1010.21
2017-05-30T04:33:12.672Z,1010.18
2017-05-30T04:34:21.576Z,1010.13
2017-05-30T04:35:30.799Z,1010.12
2017-05-30T04:36:40.021Z,1010.14
2017-05-30T04:37:48.964Z,1010.2
2017-05-30T04:38:58.187Z,1010.23
2017-05-30T04:40:07.092Z,1010.28
2017-05-30T04:41:16.319Z,1010.3
2017-05-30T04:42:25.862Z,1010.37
2017-05-30T04:43:35.191Z,1010.38
2017-05-30T04:44:44.416Z,1010.35
2017-05-30T04:45:53.637Z,1010.31
2017-05-30T04:47:03.183Z,1010.28
2017-05-30T04:48:12.406Z,1010.28
2017-05-30T04:49:21.452Z,1010.24
2017-05-30T04:50:30.346Z,1010.25
2017-05-30T04:51:39.247Z,1010.34
2017-05-30T04:52:48.468Z,1010.35
2017-05-30T04:53:57.684Z,1010.42
2017-05-30T04:55:06.900Z,1010.44
2017-05-30T04:56:15.799Z,1010.5
2017-05-30T04:57:25.020Z,1010.53
2017-05-30T04:58:33.920Z,1010.6
2017-05-30T04:59:43.469Z,1010.66
2017-05-30T05:00:53.009Z,1010.69
2017-05-30T05:02:02.225Z,1010.65
2017-05-30T05:03:11.450Z,1010.7
2017-05-30T05:04:20.684Z,1010.71
2017-05-30T05:05:29.902Z,1010.83
2017-05-30T05:06:39.276Z,1010.84
2017-05-30T05:07:48.186Z,1010.8
2017-05-30T05:08:57.077Z,1010.79
2017-05-30T05:10:06.303Z,1010.82
2017-05-30T05:11:15.527Z,1010.84
2017-05-30T05:12:24.670Z,1010.93
2017-05-30T05:13:33.565Z,1010.95
2017-05-30T05:14:42.465Z,1010.98
2017-05-30T05:15:51.371Z,1011.05
2017-05-30T05:17:00.916Z,1011.06
2017-05-30T05:18:09.914Z,1011.05
2017-05-30T05:19:19.134Z,1011.1
2017-05-30T05:20:28.353Z,1011.11
2017-05-30T05:21:37.252Z,1011.17
2017-05-30T05:22:46.146Z,1011.22
2017-05-30T05:23:55.194Z,1011.26
2017-05-30T05:25:04.739Z,1011.28
2017-05-30T05:26:13.970Z,1011.3
2017-05-30T05:27:22.867Z,1011.26
2017-05-30T05:28:32.087Z,1011.29
2017-05-30T05:29:41.791Z,1011.34
2017-05-30T05:30:51.343Z,1011.28
2017-05-30T05:32:00.239Z,1011.31
2017-05-30T05:33:09.787Z,1011.32
2017-05-30T05:34:19.011Z,1011.35
2017-05-30T05:35:28.537Z,1011.32
2017-05-30T05:36:37.432Z,1011.34
2017-05-30T05:37:46.652Z,1011.38
2017-05-30T05:38:56.520Z,1011.4
2017-05-30T05:40:05.738Z,1011.46
2017-05-30T05:41:14.738Z,1011.44
2017-05-30T05:42:23.631Z,1011.44
2017-05-30T05:43:32.849Z,1011.5
2017-05-30T05:44:42.082Z,1011.49
2017-05-30T05:45:51.300Z,1011.49
2017-05-30T05:47:00.916Z,1011.52
2017-05-30T05:48:10.138Z,1011.5
2017-05-30T05:49:19.030Z,1011.55
2017-05-30T05:50:27.927Z,1011.58
2017-05-30T05:51:37.148Z,1011.64
2017-05-30T05:52:46.514Z,1011.65
2017-05-30T05:53:55.734Z,1011.68
2017-05-30T05:55:04.631Z,1011.68
2017-05-30T05:56:13.858Z,1011.66
2017-05-30T05:57:23.400Z,1011.67
2017-05-30T05:58:32.349Z,1011.66
2017-05-30T05:59:41.248Z,1011.65
2017-05-30T06:00:50.793Z,1011.6
2017-05-30T06:02:00.011Z,1011.66
2017-05-30T06:03:08.908Z,1011.6
2017-05-30T06:04:18.429Z,1011.68
2017-05-30T06:05:27.976Z,1011.7
2017-05-30T06:06:36.874Z,1011.72
2017-05-30T06:07:45.765Z,1011.76
2017-05-30T06:08:54.986Z,1011.76
2017-05-30T06:10:03.931Z,1011.83
2017-05-30T06:11:12.829Z,1011.82
2017-05-30T06:12:22.049Z,1011.82
2017-05-30T06:13:31.919Z,1011.87
2017-05-30T06:14:41.141Z,1011.84
2017-05-30T06:15:50.889Z,1011.88
2017-05-30T06:16:59.791Z,1011.91
2017-05-30T06:18:08.742Z,1011.91
2017-05-30T06:19:18.287Z,1011.9
2017-05-30T06:20:27.183Z,1011.95
2017-05-30T06:21:36.181Z,1011.89
2017-05-30T06:22:46.048Z,1011.88
2017-05-30T06:23:55.279Z,1011.89
2017-05-30T06:25:04.837Z,1011.9
2017-05-30T06:26:13.741Z,1011.92
2017-05-30T06:27:23.660Z,1011.85
2017-05-30T06:28:32.881Z,1011.84
2017-05-30T06:29:42.758Z,1011.87
2017-05-30T06:30:52.306Z,1011.87
2017-05-30T06:32:01.207Z,1011.9
2017-05-30T06:33:10.580Z,1011.89
2017-05-30T06:34:19.488Z,1011.92
2017-05-30T06:35:28.709Z,1012.04
2017-05-30T06:36:37.928Z,1012.05
2017-05-30T06:37:46.825Z,1012.03
2017-05-30T06:38:56.144Z,1012.1
2017-05-30T06:40:05.696Z,1012.05
2017-05-30T06:41:14.594Z,1012.03
2017-05-30T06:42:23.495Z,1012.1
2017-05-30T06:43:32.716Z,1012.05
2017-05-30T06:44:41.619Z,1012.03
2017-05-30T06:45:50.537Z,1011.96
2017-05-30T06:46:59.756Z,1011.95
2017-05-30T06:48:08.653Z,1011.93
2017-05-30T06:49:17.551Z,1011.98
2017-05-30T06:50:26.770Z,1012.02
2017-05-30T06:51:35.987Z,1012.03
2017-05-30T06:52:45.859Z,1012.01
2017-05-30T06:53:55.735Z,1012.07
2017-05-30T06:55:04.959Z,1012.06
2017-05-30T06:56:13.862Z,1012.06
2017-05-30T06:57:23.083Z,1012.13
2017-05-30T06:58:32.006Z,1012.08
2017-05-30T06:59:40.902Z,1012.06
2017-05-30T07:00:50.773Z,1012.11
2017-05-30T07:02:00.099Z,1012.07
2017-05-30T07:03:09.000Z,1012.08
2017-05-30T07:04:18.223Z,1012.05
2017-05-30T07:05:27.455Z,1012.02
2017-05-30T07:06:36.673Z,1012.07
2017-05-30T07:07:46.138Z,1012.04
2017-05-30T07:08:55.366Z,1012.03
2017-05-30T07:10:04.593Z,1012.02
2017-05-30T07:11:13.812Z,1012.05
2017-05-30T07:12:23.037Z,1011.95
2017-05-30T07:13:32.462Z,1011.95
2017-05-30T07:14:41.681Z,1011.92
2017-05-30T07:15:51.554Z,1011.95
2017-05-30T07:17:01.116Z,1011.91
2017-05-30T07:18:10.010Z,1011.94
2017-05-30T07:19:19.059Z,1011.89
2017-05-30T07:20:28.285Z,1011.91
2017-05-30T07:21:37.506Z,1011.95
2017-05-30T07:22:46.400Z,1011.93
2017-05-30T07:23:55.292Z,1011.97
2017-05-30T07:25:04.441Z,1012.01
2017-05-30T07:26:13.338Z,1011.98
2017-05-30T07:27:22.562Z,1011.95
2017-05-30T07:28:31.461Z,1012
2017-05-30T07:29:40.356Z,1011.98
2017-05-30T07:30:49.409Z,1011.9
2017-05-30T07:31:58.306Z,1011.96
2017-05-30T07:33:07.203Z,1011.87
2017-05-30T07:34:16.098Z,1011.87
2017-05-30T07:35:25.000Z,1011.87
2017-05-30T07:36:34.045Z,1011.87
2017-05-30T07:37:43.601Z,1011.96
2017-05-30T07:38:53.156Z,1011.92
2017-05-30T07:40:02.389Z,1011.92
2017-05-30T07:41:11.285Z,1011.91
2017-05-30T07:42:20.810Z,1011.84
2017-05-30T07:43:29.709Z,1011.87
2017-05-30T07:44:38.606Z,1011.9
2017-05-30T07:45:48.155Z,1011.93
2017-05-30T07:46:57.381Z,1011.92
2017-05-30T07:48:06.861Z,1011.87
2017-05-30T07:49:16.083Z,1011.88
2017-05-30T07:50:25.647Z,1011.81
2017-05-30T07:51:34.542Z,1011.82
2017-05-30T07:52:43.437Z,1011.77
2017-05-30T07:53:52.640Z,1011.76
2017-05-30T07:55:02.518Z,1011.82
2017-05-30T07:56:11.434Z,1011.84
2017-05-30T07:57:20.330Z,1011.91
2017-05-30T07:58:29.556Z,1011.92
2017-05-30T07:59:38.929Z,1011.95
2017-05-30T08:00:48.162Z,1011.98
2017-05-30T08:01:57.060Z,1011.95
2017-05-30T08:03:05.966Z,1011.93
2017-05-30T08:04:14.864Z,1011.93
2017-05-30T08:05:24.291Z,1011.99
2017-05-30T08:06:33.189Z,1011.95
2017-05-30T08:07:42.094Z,1011.96
2017-05-30T08:08:51.968Z,1011.92
2017-05-30T08:10:00.868Z,1011.96
2017-05-30T08:11:10.359Z,1012.02
2017-05-30T08:12:19.262Z,1012.02
2017-05-30T08:13:28.813Z,1012.03
2017-05-30T08:14:38.035Z,1012.05
2017-05-30T08:15:47.913Z,1012.02
2017-05-30T08:16:57.282Z,1012.08
2017-05-30T08:18:06.507Z,1012.04
2017-05-30T08:19:15.405Z,1012.04
2017-05-30T08:20:24.308Z,1012.02
2017-05-30T08:21:33.539Z,1012.02
2017-05-30T08:22:42.790Z,1012.02
2017-05-30T08:23:52.010Z,1011.97
2017-05-30T08:25:01.569Z,1011.94
2017-05-30T08:26:10.792Z,1011.93
2017-05-30T08:27:20.021Z,1011.98
2017-05-30T08:28:29.347Z,1012.02
2017-05-30T08:29:38.578Z,1012.09
2017-05-30T08:30:47.485Z,1012.08
2017-05-30T08:31:56.389Z,1012.1
2017-05-30T08:33:05.941Z,1012.08
2017-05-30T08:34:14.896Z,1012.04
2017-05-30T08:35:24.124Z,1012.06
2017-05-30T08:36:33.035Z,1012.07
2017-05-30T08:37:41.942Z,1012.05
2017-05-30T08:38:51.169Z,1012.04
2017-05-30T08:40:00.877Z,1012.02
2017-05-30T08:41:10.105Z,1012.02
2017-05-30T08:42:19.329Z,1012.02
2017-05-30T08:43:28.236Z,1012.02
2017-05-30T08:44:37.460Z,1011.98
2017-05-30T08:45:46.732Z,1011.99
2017-05-30T08:46:56.605Z,1012.03
2017-05-30T08:48:05.839Z,1012.09
2017-05-30T08:49:15.401Z,1012.09
2017-05-30T08:50:24.321Z,1012.06
2017-05-30T08:51:33.426Z,1012.13
2017-05-30T08:52:42.983Z,1012.14
2017-05-30T08:53:51.890Z,1012.15
2017-05-30T08:55:01.113Z,1012.14
2017-05-30T08:56:10.018Z,1012.16
2017-05-30T08:57:19.718Z,1012.09
2017-05-30T08:58:28.620Z,1012.13
2017-05-30T08:59:37.879Z,1012.1
2017-05-30T09:00:47.425Z,1012.14
2017-05-30T09:01:56.324Z,1012.13
2017-05-30T09:03:05.322Z,1012.15
2017-05-30T09:04:14.889Z,1012.16
2017-05-30T09:05:23.791Z,1012.08
2017-05-30T09:06:32.707Z,1012.1
2017-05-30T09:07:41.934Z,1012.1
2017-05-30T09:08:51.537Z,1012.13
2017-05-30T09:10:01.084Z,1012.18
2017-05-30T09:11:09.984Z,1012.18
2017-05-30T09:12:18.885Z,1012.18
2017-05-30T09:13:27.794Z,1012.26
2017-05-30T09:14:36.845Z,1012.27
2017-05-30T09:15:46.070Z,1012.27
2017-05-30T09:16:55.363Z,1012.29
2017-05-30T09:18:04.263Z,1012.28
2017-05-30T09:19:13.164Z,1012.27
2017-05-30T09:20:22.543Z,1012.22
2017-05-30T09:21:31.764Z,1012.23
2017-05-30T09:22:40.662Z,1012.25
2017-05-30T09:23:49.559Z,1012.2
2017-05-30T09:24:58.461Z,1012.22
2017-05-30T09:26:07.692Z,1012.27
2017-05-30T09:27:16.592Z,1012.31
2017-05-30T09:28:25.816Z,1012.29
2017-05-30T09:29:35.711Z,1012.28
2017-05-30T09:30:44.934Z,1012.33
2017-05-30T09:31:53.835Z,1012.34
2017-05-30T09:33:03.064Z,1012.39
2017-05-30T09:34:11.963Z,1012.35
2017-05-30T09:35:21.523Z,1012.39
2017-05-30T09:36:30.421Z,1012.4
2017-05-30T09:37:39.326Z,1012.38
2017-05-30T09:38:48.550Z,1012.44
2017-05-30T09:39:57.451Z,1012.4
2017-05-30T09:41:06.352Z,1012.5
2017-05-30T09:42:15.254Z,1012.62
2017-05-30T09:43:24.305Z,1012.52
2017-05-30T09:44:33.207Z,1012.54
2017-05-30T09:45:42.108Z,1012.54
2017-05-30T09:46:51.006Z,1012.57
2017-05-30T09:47:59.905Z,1012.52
2017-05-30T09:49:09.278Z,1012.5
2017-05-30T09:50:18.501Z,1012.52
2017-05-30T09:51:27.399Z,1012.65
2017-05-30T09:52:36.308Z,1012.49
2017-05-30T09:53:45.207Z,1012.53
2017-05-30T09:54:54.453Z,1012.52
2017-05-30T09:56:03.362Z,1012.43
2017-05-30T09:57:12.259Z,1012.49
2017-05-30T09:58:21.494Z,1012.55
2017-05-30T09:59:30.396Z,1012.59
2017-05-30T10:00:39.302Z,1012.5
2017-05-30T10:01:48.198Z,1012.49
2017-05-30T10:02:57.093Z,1012.48
2017-05-30T10:04:05.991Z,1012.44
2017-05-30T10:05:14.894Z,1012.49
2017-05-30T10:06:23.793Z,1012.5
2017-05-30T10:07:33.021Z,1012.53
2017-05-30T10:08:41.939Z,1012.55
2017-05-30T10:09:50.837Z,1012.55
2017-05-30T10:11:00.070Z,1012.56
2017-05-30T10:12:09.118Z,1012.6
2017-05-30T10:13:18.024Z,1012.58
2017-05-30T10:14:26.928Z,1012.59
2017-05-30T10:15:35.829Z,1012.68
2017-05-30T10:16:44.732Z,1012.64
2017-05-30T10:17:53.631Z,1012.63
2017-05-30T10:19:02.542Z,1012.64
2017-05-30T10:20:11.439Z,1012.65
2017-05-30T10:21:20.670Z,1012.64
2017-05-30T10:22:29.571Z,1012.65
2017-05-30T10:23:38.954Z,1012.68
2017-05-30T10:24:48.503Z,1012.65
2017-05-30T10:25:57.404Z,1012.67
2017-05-30T10:27:06.308Z,1012.67
2017-05-30T10:28:15.210Z,1012.64
2017-05-30T10:29:24.263Z,1012.66
2017-05-30T10:30:33.162Z,1012.65
2017-05-30T10:31:42.064Z,1012.62
2017-05-30T10:32:50.964Z,1012.61
2017-05-30T10:33:59.868Z,1012.63
2017-05-30T10:35:09.170Z,1012.61
2017-05-30T10:36:18.082Z,1012.65
2017-05-30T10:37:26.980Z,1012.54
2017-05-30T10:38:36.205Z,1012.56
2017-05-30T10:39:45.101Z,1012.66
2017-05-30T10:40:54.532Z,1012.57
2017-05-30T10:42:03.441Z,1012.57
2017-05-30T10:43:12.667Z,1012.55
2017-05-30T10:44:21.621Z,1012.53
2017-05-30T10:45:30.525Z,1012.56
2017-05-30T10:46:39.798Z,1012.63
2017-05-30T10:47:48.703Z,1012.82
2017-05-30T10:48:57.619Z,1012.59
2017-05-30T10:50:06.525Z,1012.65
2017-05-30T10:51:15.431Z,1012.68
2017-05-30T10:52:25.060Z,1012.66
2017-05-30T10:53:33.999Z,1012.67
2017-05-30T10:54:42.901Z,1012.64
2017-05-30T10:55:51.799Z,1012.65
2017-05-30T10:57:00.698Z,1012.65
2017-05-30T10:58:09.747Z,1012.59
2017-05-30T10:59:18.974Z,1012.61
2017-05-30T11:00:27.874Z,1012.65
2017-05-30T11:01:37.092Z,1012.62
2017-05-30T11:02:46.339Z,1012.65
2017-05-30T11:03:55.340Z,1012.75
2017-05-30T11:05:04.248Z,1012.78
2017-05-30T11:06:13.482Z,1012.75
2017-05-30T11:07:22.382Z,1012.7
2017-05-30T11:08:31.610Z,1012.73
2017-05-30T11:09:40.933Z,1012.72
2017-05-30T11:10:49.857Z,1012.73
2017-05-30T11:11:58.762Z,1012.72
2017-05-30T11:13:07.673Z,1012.7
2017-05-30T11:14:16.594Z,1012.72
2017-05-30T11:15:25.961Z,1012.71
2017-05-30T11:16:35.682Z,1012.67
2017-05-30T11:17:44.722Z,1012.75
2017-05-30T11:18:53.672Z,1012.72
2017-05-30T11:20:02.574Z,1012.73
2017-05-30T11:21:11.699Z,1012.68
2017-05-30T11:22:20.601Z,1012.65
2017-05-30T11:23:29.827Z,1012.69
2017-05-30T11:24:39.053Z,1012.73
2017-05-30T11:25:48.325Z,1012.8
2017-05-30T11:26:57.337Z,1012.78
2017-05-30T11:28:06.338Z,1012.76
2017-05-30T11:29:15.237Z,1012.85
2017-05-30T11:30:24.136Z,1012.79
2017-05-30T11:31:33.036Z,1012.73
2017-05-30T11:32:42.511Z,1012.75
2017-05-30T11:33:51.417Z,1012.81
2017-05-30T11:35:00.389Z,1012.8
2017-05-30T11:36:09.611Z,1012.82
2017-05-30T11:37:18.836Z,1012.86
2017-05-30T11:38:28.345Z,1012.88
2017-05-30T11:39:37.303Z,1012.82
2017-05-30T11:40:46.215Z,1012.84
2017-05-30T11:41:55.180Z,1012.85
2017-05-30T11:43:04.118Z,1012.83
2017-05-30T11:44:13.188Z,1012.91
2017-05-30T11:45:22.115Z,1012.88
2017-05-30T11:46:31.420Z,1012.92
2017-05-30T11:47:40.339Z,1012.87
2017-05-30T11:48:49.239Z,1012.88
2017-05-30T11:49:58.723Z,1012.93
2017-05-30T11:51:07.621Z,1013.06
2017-05-30T11:52:16.527Z,1013.23
2017-05-30T11:53:25.456Z,1013.01
2017-05-30T11:54:34.357Z,1012.82
2017-05-30T11:55:43.251Z,1012.81
2017-05-30T11:56:52.154Z,1012.85
2017-05-30T11:58:01.055Z,1012.87
2017-05-30T11:59:09.956Z,1012.88
2017-05-30T12:00:19.527Z,1012.95
2017-05-30T12:01:29.006Z,1012.67
2017-05-30T12:02:37.914Z,1012.79
2017-05-30T12:03:46.815Z,1012.76
2017-05-30T12:04:55.797Z,1012.86
2017-05-30T12:06:05.058Z,1012.77
2017-05-30T12:07:14.499Z,1012.73
2017-05-30T12:08:23.764Z,1012.74
2017-05-30T12:09:32.687Z,1012.7
2017-05-30T12:10:41.632Z,1012.71
2017-05-30T12:11:50.873Z,1012.64
2017-05-30T12:13:00.261Z,1012.72
2017-05-30T12:14:09.234Z,1012.78
2017-05-30T12:15:18.167Z,1012.79
2017-05-30T12:16:27.392Z,1012.77
2017-05-30T12:17:36.636Z,1012.78
2017-05-30T12:18:46.035Z,1012.7
2017-05-30T12:19:54.944Z,1012.71
2017-05-30T12:21:04.234Z,1012.73
2017-05-30T12:22:13.470Z,1012.68
2017-05-30T12:23:22.693Z,1012.89
2017-05-30T12:24:31.646Z,1012.69
2017-05-30T12:25:40.886Z,1012.71
2017-05-30T12:26:50.150Z,1012.86
2017-05-30T12:27:59.067Z,1012.67
2017-05-30T12:29:07.965Z,1012.7
2017-05-30T12:30:17.523Z,1012.68
2017-05-30T12:31:26.782Z,1012.71
2017-05-30T12:32:36.131Z,1012.76
2017-05-30T12:33:45.037Z,1012.82
2017-05-30T12:34:53.938Z,1012.72
2017-05-30T12:36:03.633Z,1012.84
2017-05-30T12:37:12.547Z,1012.71
2017-05-30T12:38:22.194Z,1012.67
2017-05-30T12:39:31.097Z,1012.77
2017-05-30T12:40:40.029Z,1012.78
2017-05-30T12:41:49.313Z,1012.7
2017-05-30T12:42:58.337Z,1012.76
2017-05-30T12:44:07.249Z,1012.76
2017-05-30T12:45:16.478Z,1012.68
2017-05-30T12:46:25.709Z,1012.58
2017-05-30T12:47:34.865Z,1012.62
2017-05-30T12:48:44.096Z,1012.56
2017-05-30T12:49:53.011Z,1012.61
2017-05-30T12:51:02.251Z,1012.59
2017-05-30T12:52:11.162Z,1012.63
2017-05-30T12:53:20.219Z,1012.43
2017-05-30T12:54:29.127Z,1012.48
2017-05-30T12:55:38.047Z,1012.67
2017-05-30T12:56:46.979Z,1012.52
2017-05-30T12:57:56.247Z,1012.53
2017-05-30T12:59:05.480Z,1012.61
2017-05-30T13:00:14.384Z,1012.54
2017-05-30T13:01:23.627Z,1012.57
2017-05-30T13:02:32.537Z,1012.7
2017-05-30T13:03:41.458Z,1012.5
2017-05-30T13:04:50.518Z,1012.47
2017-05-30T13:05:59.425Z,1012.56
2017-05-30T13:07:08.373Z,1012.51
2017-05-30T13:08:17.317Z,1012.38
2017-05-30T13:09:26.247Z,1012.46
2017-05-30T13:10:35.400Z,1012.42
2017-05-30T13:11:44.308Z,1012.45
2017-05-30T13:12:53.224Z,1012.42
2017-05-30T13:14:02.465Z,1012.54
2017-05-30T13:15:11.395Z,1012.53
2017-05-30T13:16:20.534Z,1012.55
2017-05-30T13:17:29.468Z,1012.5
2017-05-30T13:18:38.418Z,1012.29
2017-05-30T13:19:47.353Z,1012.41
2017-05-30T13:20:56.288Z,1012.38
2017-05-30T13:22:05.830Z,1012.37
2017-05-30T13:23:14.752Z,1012.4
2017-05-30T13:24:23.986Z,1012.48
2017-05-30T13:25:32.891Z,1012.44
2017-05-30T13:26:41.803Z,1012.36
2017-05-30T13:27:50.718Z,1012.32
2017-05-30T13:28:59.637Z,1012.37
2017-05-30T13:30:08.877Z,1012.37
2017-05-30T13:31:17.789Z,1012.4
2017-05-30T13:32:26.707Z,1012.36
2017-05-30T13:33:36.091Z,1012.38
2017-05-30T13:34:45.655Z,1012.55
2017-05-30T13:35:54.893Z,1012.49
2017-05-30T13:37:03.802Z,1012.53
2017-05-30T13:38:13.360Z,1012.46
2017-05-30T13:39:22.572Z,1012.32
2017-05-30T13:40:31.479Z,1012.33
2017-05-30T13:41:41.042Z,1012.28
2017-05-30T13:42:49.948Z,1012.36
2017-05-30T13:43:59.183Z,1012.25
2017-05-30T13:45:08.464Z,1012.16
2017-05-30T13:46:17.372Z,1012.14
2017-05-30T13:47:26.292Z,1012.16
2017-05-30T13:48:35.205Z,1012.19
2017-05-30T13:49:44.115Z,1012.23
2017-05-30T13:50:53.175Z,1012.2
2017-05-30T13:52:02.083Z,1012.29
2017-05-30T13:53:10.992Z,1012.29
2017-05-30T13:54:19.892Z,1012.36
2017-05-30T13:55:28.803Z,1012.49
2017-05-30T13:56:38.011Z,1012.49
2017-05-30T13:57:46.915Z,1012.52
2017-05-30T13:58:55.821Z,1012.5
2017-05-30T14:00:04.722Z,1012.47